createdAt,value
2018-11-27T00:00:03.239Z,99887.00
2018-11-27T00:02:30.894Z,99885.00
2018-11-27T00:04:58.897Z,99886.00
2018-11-27T00:07:26.562Z,99888.00
2018-11-27T00:09:54.310Z,99894.00
2018-11-27T00:12:22.180Z,99899.00
2018-11-27T00:14:49.874Z,99903.00
2018-11-27T00:17:17.514Z,99901.00
2018-11-27T00:19:45.796Z,99895.00
2018-11-27T00:22:13.461Z,99904.00
2018-11-27T00:24:41.079Z,99902.00
2018-11-27T00:27:08.766Z,99901.00
2018-11-27T00:29:36.414Z,99897.00
2018-11-27T00:32:04.506Z,99899.00
2018-11-27T00:34:32.454Z,99900.00
2018-11-27T00:37:00.171Z,99908.00
2018-11-27T00:39:28.489Z,99904.00
2018-11-27T00:41:56.338Z,99903.00
2018-11-27T00:44:23.998Z,99907.00
2018-11-27T00:46:51.647Z,99914.00
2018-11-27T00:49:19.725Z,99915.00
2018-11-27T00:51:47.419Z,99912.00
2018-11-27T00:54:15.056Z,99916.00
2018-11-27T00:56:42.776Z,99918.00
2018-11-27T00:59:11.609Z,99926.00
2018-11-27T01:01:39.233Z,99927.00
2018-11-27T01:04:07.019Z,99932.00
2018-11-27T01:06:34.864Z,99938.00
2018-11-27T01:09:02.709Z,99936.00
2018-11-27T01:11:32.016Z,99942.00
2018-11-27T01:13:59.927Z,99943.00
2018-11-27T01:16:27.570Z,99945.00
2018-11-27T01:18:55.214Z,99944.00
2018-11-27T01:21:22.917Z,99949.00
2018-11-27T01:23:50.530Z,99947.00
2018-11-27T01:26:18.560Z,99948.00
2018-11-27T01:28:46.225Z,99947.00
2018-11-27T01:31:14.126Z,99947.00
2018-11-27T01:33:41.841Z,99953.00
2018-11-27T01:36:09.457Z,99953.00
2018-11-27T01:38:37.345Z,99946.00
2018-11-27T01:41:05.558Z,99953.00
2018-11-27T01:43:34.445Z,99953.00
2018-11-27T01:46:02.405Z,99952.00
2018-11-27T01:48:30.251Z,99953.00
2018-11-27T01:50:58.946Z,99954.00
2018-11-27T01:53:26.668Z,99952.00
2018-11-27T01:55:54.303Z,99953.00
2018-11-27T01:58:22.308Z,99960.00
2018-11-27T02:00:50.026Z,99959.00
2018-11-27T02:03:17.671Z,99954.00
2018-11-27T02:05:45.634Z,99956.00
2018-11-27T02:08:13.257Z,99952.00
2018-11-27T02:10:40.937Z,99956.00
2018-11-27T02:13:08.803Z,99958.00
2018-11-27T02:15:36.449Z,99954.00
2018-11-27T02:18:04.450Z,99953.00
2018-11-27T02:20:32.160Z,99946.00
2018-11-27T02:22:59.789Z,99952.00
2018-11-27T02:25:28.788Z,99957.00
2018-11-27T02:27:56.528Z,99957.00
2018-11-27T02:30:25.102Z,99963.00
2018-11-27T02:32:52.755Z,99968.00
2018-11-27T02:35:23.330Z,99975.00
2018-11-27T02:37:55.331Z,99975.00
2018-11-27T02:40:23.027Z,99971.00
2018-11-27T02:42:51.389Z,99971.00
2018-11-27T02:45:20.323Z,99974.00
2018-11-27T02:47:48.933Z,99977.00
2018-11-27T02:50:17.240Z,99981.00
2018-11-27T02:52:45.266Z,99986.00
2018-11-27T02:55:15.841Z,99992.00
2018-11-27T02:57:43.533Z,99991.00
2018-11-27T03:00:12.422Z,99995.00
2018-11-27T03:02:40.105Z,100000.00
2018-11-27T03:05:10.323Z,100000.00
2018-11-27T03:07:37.966Z,100003.00
2018-11-27T03:10:08.193Z,100007.00
2018-11-27T03:12:36.081Z,100013.00
2018-11-27T03:15:04.245Z,100014.00
2018-11-27T03:17:31.928Z,100022.00
2018-11-27T03:19:59.579Z,100017.00
2018-11-27T03:22:27.242Z,100017.00
2018-11-27T03:24:54.917Z,100019.00
2018-11-27T03:27:22.910Z,100018.00
2018-11-27T03:29:50.517Z,100016.00
2018-11-27T03:32:18.167Z,100015.00
2018-11-27T03:34:46.058Z,100011.00
2018-11-27T03:37:13.685Z,100016.00
2018-11-27T03:39:41.327Z,100017.00
2018-11-27T03:42:09.231Z,100026.00
2018-11-27T03:44:36.909Z,100028.00
2018-11-27T03:47:04.840Z,100021.00
2018-11-27T03:49:32.739Z,100019.00
2018-11-27T03:52:05.147Z,100021.00
2018-11-27T03:54:33.104Z,100023.00
2018-11-27T03:57:00.803Z,100023.00
2018-11-27T03:59:28.423Z,100030.00
2018-11-27T04:01:56.603Z,100033.00
2018-11-27T04:04:24.279Z,100031.00
2018-11-27T04:06:51.944Z,100032.00
2018-11-27T04:09:19.955Z,100039.00
2018-11-27T04:11:47.592Z,100038.00
2018-11-27T04:14:15.356Z,100039.00
2018-11-27T04:16:43.232Z,100039.00
2018-11-27T04:19:10.919Z,100041.00
2018-11-27T04:21:38.873Z,100038.00
2018-11-27T04:24:06.540Z,100040.00
2018-11-27T04:26:34.192Z,100043.00
2018-11-27T04:29:02.270Z,100047.00
2018-11-27T04:31:30.552Z,100046.00
2018-11-27T04:33:58.183Z,100049.00
2018-11-27T04:36:25.906Z,100051.00
2018-11-27T04:38:53.632Z,100054.00
2018-11-27T04:41:21.271Z,100054.00
2018-11-27T04:43:49.126Z,100054.00
2018-11-27T04:46:16.838Z,100061.00
2018-11-27T04:48:44.880Z,100062.00
2018-11-27T04:51:12.568Z,100057.00
2018-11-27T04:53:40.888Z,100059.00
2018-11-27T04:56:08.869Z,100059.00
2018-11-27T04:58:36.519Z,100060.00
2018-11-27T05:01:04.981Z,100057.00
2018-11-27T05:03:33.007Z,100065.00
2018-11-27T05:06:00.642Z,100066.00
2018-11-27T05:08:28.310Z,100069.00
2018-11-27T05:10:56.329Z,100075.00
2018-11-27T05:13:24.042Z,100076.00
2018-11-27T05:15:51.787Z,100075.00
2018-11-27T05:18:20.155Z,100075.00
2018-11-27T05:20:47.851Z,100081.00
2018-11-27T05:23:15.494Z,100084.00
2018-11-27T05:25:43.223Z,100083.00
2018-11-27T05:28:10.859Z,100086.00
2018-11-27T05:30:38.522Z,100086.00
2018-11-27T05:33:06.475Z,100088.00
2018-11-27T05:35:34.338Z,100086.00
2018-11-27T05:38:02.222Z,100090.00
2018-11-27T05:40:30.158Z,100092.00
2018-11-27T05:43:03.274Z,100093.00
2018-11-27T05:45:31.675Z,100099.00
2018-11-27T05:47:59.349Z,100098.00
2018-11-27T05:50:26.991Z,100097.00
2018-11-27T05:52:54.973Z,100099.00
2018-11-27T05:55:23.021Z,100106.00
2018-11-27T05:57:52.127Z,100103.00
2018-11-27T06:00:28.047Z,100110.00
2018-11-27T06:02:57.521Z,100103.00
2018-11-27T06:05:24.981Z,100111.00
2018-11-27T06:07:53.018Z,100108.00
2018-11-27T06:10:23.166Z,100115.00
2018-11-27T06:12:50.992Z,100117.00
2018-11-27T06:15:19.802Z,100128.00
2018-11-27T06:17:49.478Z,100131.00
2018-11-27T06:20:18.286Z,100132.00
2018-11-27T06:22:46.329Z,100136.00
2018-11-27T06:25:15.152Z,100140.00
2018-11-27T06:27:42.865Z,100145.00
2018-11-27T06:30:16.610Z,100147.00
2018-11-27T06:32:44.293Z,100153.00
2018-11-27T06:35:13.344Z,100156.00
2018-11-27T06:37:41.160Z,100161.00
2018-11-27T06:40:11.389Z,100165.00
2018-11-27T06:42:39.106Z,100169.00
2018-11-27T06:45:10.366Z,100176.00
2018-11-27T06:47:38.086Z,100181.00
2018-11-27T06:50:08.195Z,100188.00
2018-11-27T06:52:36.318Z,100197.00
2018-11-27T06:55:04.551Z,100197.00
2018-11-27T06:57:32.242Z,100203.00
2018-11-27T07:00:00.086Z,100203.00
2018-11-27T07:02:27.743Z,100213.00
2018-11-27T07:04:55.419Z,100211.00
2018-11-27T07:07:23.272Z,100212.00
2018-11-27T07:09:50.931Z,100213.00
2018-11-27T07:12:18.570Z,100223.00
2018-11-27T07:14:46.463Z,100226.00
2018-11-27T07:17:14.119Z,100231.00
2018-11-27T07:19:41.759Z,100233.00
2018-11-27T07:22:09.762Z,100236.00
2018-11-27T07:24:37.455Z,100234.00
2018-11-27T07:27:05.164Z,100241.00
2018-11-27T07:29:33.058Z,100240.00
2018-11-27T07:32:00.778Z,100241.00
2018-11-27T07:34:28.439Z,100248.00
2018-11-27T07:36:56.275Z,100251.00
2018-11-27T07:39:23.920Z,100260.00
2018-11-27T07:41:51.582Z,100258.00
2018-11-27T07:44:19.477Z,100267.00
2018-11-27T07:46:47.127Z,100271.00
2018-11-27T07:49:14.824Z,100277.00
2018-11-27T07:51:42.694Z,100287.00
2018-11-27T07:54:10.311Z,100283.00
2018-11-27T07:56:38.884Z,100289.00
2018-11-27T07:59:06.932Z,100294.00
2018-11-27T08:01:34.599Z,100291.00
2018-11-27T08:04:02.259Z,100293.00
2018-11-27T08:06:30.155Z,100301.00
2018-11-27T08:08:57.833Z,100306.00
2018-11-27T08:11:25.503Z,100304.00
2018-11-27T08:13:53.440Z,100308.00
2018-11-27T08:16:21.175Z,100310.00
2018-11-27T08:18:48.875Z,100314.00
2018-11-27T08:21:16.942Z,100316.00
2018-11-27T08:23:44.600Z,100324.00
2018-11-27T08:26:12.264Z,100336.00
2018-11-27T08:28:40.087Z,100335.00
2018-11-27T08:31:07.759Z,100335.00
2018-11-27T08:33:35.389Z,100335.00
2018-11-27T08:36:03.376Z,100334.00
2018-11-27T08:38:31.067Z,100339.00
2018-11-27T08:40:58.676Z,100346.00
2018-11-27T08:43:26.679Z,100351.00
2018-11-27T08:45:54.339Z,100355.00
2018-11-27T08:48:22.064Z,100360.00
2018-11-27T08:50:49.986Z,100363.00
2018-11-27T08:53:17.650Z,100366.00
2018-11-27T08:55:45.294Z,100372.00
2018-11-27T08:58:18.606Z,100374.00
2018-11-27T09:00:46.266Z,100379.00
2018-11-27T09:03:13.951Z,100378.00
2018-11-27T09:05:41.648Z,100388.00
2018-11-27T09:08:09.298Z,100388.00
2018-11-27T09:10:36.966Z,100391.00
2018-11-27T09:13:05.747Z,100394.00
2018-11-27T09:15:33.533Z,100393.00
2018-11-27T09:18:15.868Z,100399.00
2018-11-27T09:20:43.501Z,100404.00
2018-11-27T09:23:11.182Z,100408.00
2018-11-27T09:25:39.331Z,100397.00
2018-11-27T09:28:07.024Z,100403.00
2018-11-27T09:30:34.665Z,100406.00
2018-11-27T09:33:02.627Z,100398.00
2018-11-27T09:35:30.302Z,100399.00
2018-11-27T09:37:57.955Z,100398.00
2018-11-27T09:40:25.675Z,100394.00
2018-11-27T09:42:53.335Z,100400.00
2018-11-27T09:45:23.172Z,100401.00
2018-11-27T09:47:52.320Z,100400.00
2018-11-27T09:50:20.014Z,100402.00
2018-11-27T09:52:47.698Z,100407.00
2018-11-27T09:55:21.258Z,100411.00
2018-11-27T09:57:49.591Z,100414.00
2018-11-27T10:00:23.610Z,100413.00
2018-11-27T10:02:54.564Z,100425.00
2018-11-27T10:05:22.227Z,100420.00
2018-11-27T10:07:49.916Z,100424.00
2018-11-27T10:10:19.126Z,100423.00
2018-11-27T10:12:46.776Z,100420.00
2018-11-27T10:15:15.666Z,100418.00
2018-11-27T10:17:44.270Z,100419.00
2018-11-27T10:20:17.019Z,100420.00
2018-11-27T10:22:44.724Z,100419.00
2018-11-27T10:25:12.402Z,100421.00
2018-11-27T10:27:40.891Z,100420.00
2018-11-27T10:30:14.550Z,100422.00
2018-11-27T10:35:12.204Z,100423.00
2018-11-27T10:37:47.135Z,100427.00
2018-11-27T10:40:14.855Z,100426.00
2018-11-27T10:42:42.565Z,100426.00
2018-11-27T10:47:39.727Z,100433.00
2018-11-27T10:50:09.142Z,100436.00
2018-11-27T10:52:37.619Z,100432.00
2018-11-27T10:55:07.344Z,100429.00
2018-11-27T11:00:02.799Z,100427.00
2018-11-27T11:02:33.562Z,100430.00
2018-11-27T11:07:29.256Z,100432.00
2018-11-27T11:09:56.938Z,100437.00
2018-11-27T11:14:51.816Z,100437.00
2018-11-27T11:17:19.475Z,100429.00
2018-11-27T11:22:15.814Z,100437.00
2018-11-27T11:27:11.047Z,100442.00
2018-11-27T11:32:06.181Z,100443.00
2018-11-27T11:34:33.846Z,100437.00
2018-11-27T11:37:01.783Z,100437.00
2018-11-27T11:39:29.619Z,100444.00
2018-11-27T11:41:57.273Z,100441.00
2018-11-27T11:46:53.087Z,100450.00
2018-11-27T11:49:20.742Z,100445.00
2018-11-27T11:51:49.260Z,100449.00
2018-11-27T11:54:16.935Z,100454.00
2018-11-27T11:56:44.564Z,100469.00
2018-11-27T12:01:39.670Z,100470.00
2018-11-27T12:04:07.762Z,100473.00
2018-11-27T12:06:35.470Z,100470.00
2018-11-27T12:09:03.564Z,100470.00
2018-11-27T12:11:31.670Z,100475.00
2018-11-27T12:13:59.301Z,100474.00
2018-11-27T12:16:26.979Z,100472.00
2018-11-27T12:21:22.259Z,100474.00
2018-11-27T12:23:49.938Z,100479.00
2018-11-27T12:26:17.880Z,100482.00
2018-11-27T12:28:45.543Z,100485.00
2018-11-27T12:31:13.180Z,100486.00
2018-11-27T12:36:09.313Z,100494.00
2018-11-27T12:38:37.250Z,100496.00
2018-11-27T12:41:10.092Z,100499.00
2018-11-27T12:43:33.019Z,100499.00
2018-11-27T12:48:28.138Z,100496.00
2018-11-27T12:55:54.191Z,100504.00
2018-11-27T12:58:21.836Z,100509.00
2018-11-27T13:00:49.510Z,100523.00
2018-11-27T13:05:45.204Z,100526.00
2018-11-27T13:10:48.905Z,100523.00
2018-11-27T13:13:16.555Z,100524.00
2018-11-27T13:15:44.952Z,100523.00
2018-11-27T13:18:12.655Z,100528.00
2018-11-27T13:20:40.463Z,100539.00
2018-11-27T13:23:08.486Z,100534.00
2018-11-27T13:25:36.903Z,100534.00
2018-11-27T13:28:05.723Z,100538.00
2018-11-27T13:30:43.272Z,100543.00
2018-11-27T13:33:15.259Z,100547.00
2018-11-27T13:38:10.363Z,100551.00
2018-11-27T13:40:38.051Z,100554.00
2018-11-27T13:45:34.339Z,100556.00
2018-11-27T13:48:02.233Z,100559.00
2018-11-27T13:50:29.916Z,100563.00
2018-11-27T13:52:57.863Z,100563.00
2018-11-27T13:55:25.756Z,100565.00
2018-11-27T13:57:53.398Z,100567.00
2018-11-27T14:00:21.088Z,100568.00
2018-11-27T14:05:19.395Z,100576.00
2018-11-27T14:07:47.446Z,100581.00
2018-11-27T14:10:15.326Z,100584.00
2018-11-27T14:12:43.023Z,100588.00
2018-11-27T14:20:10.361Z,100580.00
2018-11-27T14:22:38.099Z,100585.00
2018-11-27T14:25:07.817Z,100591.00
2018-11-27T14:27:35.517Z,100597.00
2018-11-27T14:30:06.883Z,100596.00
2018-11-27T14:35:01.942Z,100609.00
2018-11-27T14:37:30.066Z,100605.00
2018-11-27T14:39:57.762Z,100614.00
2018-11-27T14:42:25.394Z,100622.00
2018-11-27T14:47:20.475Z,100623.00
2018-11-27T14:49:48.398Z,100632.00
2018-11-27T14:52:16.038Z,100636.00
2018-11-27T14:54:43.531Z,100635.00
2018-11-27T14:57:11.433Z,100634.00
2018-11-27T14:59:39.095Z,100626.00
2018-11-27T15:02:06.814Z,100624.00
2018-11-27T15:09:29.574Z,100635.00
2018-11-27T15:11:57.223Z,100628.00
2018-11-27T15:16:52.251Z,100632.00
2018-11-27T15:19:19.928Z,100635.00
2018-11-27T15:21:47.919Z,100639.00
2018-11-27T15:24:15.611Z,100635.00
2018-11-27T15:26:43.288Z,100639.00
2018-11-27T15:29:11.336Z,100641.00
2018-11-27T15:31:38.974Z,100647.00
2018-11-27T15:34:06.643Z,100639.00
2018-11-27T15:39:05.810Z,100636.00
2018-11-27T15:41:33.468Z,100646.00
2018-11-27T15:44:01.335Z,100645.00
2018-11-27T15:46:28.976Z,100650.00
2018-11-27T15:48:57.448Z,100651.00
2018-11-27T15:53:52.957Z,100655.00
2018-11-27T15:56:20.641Z,100664.00
2018-11-27T16:01:15.714Z,100666.00
2018-11-27T16:03:43.371Z,100663.00
2018-11-27T16:08:38.209Z,100662.00
2018-11-27T16:11:05.860Z,100660.00
2018-11-27T16:13:33.857Z,100662.00
2018-11-27T16:16:01.516Z,100664.00
2018-11-27T16:18:29.167Z,100674.00
2018-11-27T16:20:57.175Z,100682.00
2018-11-27T16:23:24.818Z,100684.00
2018-11-27T16:25:52.498Z,100683.00
2018-11-27T16:30:47.376Z,100686.00
2018-11-27T16:33:15.203Z,100686.00
2018-11-27T16:35:42.864Z,100689.00
2018-11-27T16:38:10.511Z,100695.00
2018-11-27T16:43:06.126Z,100690.00
2018-11-27T16:45:33.799Z,100695.00
2018-11-27T16:50:31.572Z,100711.00
2018-11-27T16:52:59.221Z,100715.00
2018-11-27T16:55:27.169Z,100706.00
2018-11-27T16:57:54.816Z,100712.00
2018-11-27T17:00:24.428Z,100716.00
2018-11-27T17:02:54.672Z,100713.00
2018-11-27T17:05:22.398Z,100715.00
2018-11-27T17:07:50.065Z,100720.00
2018-11-27T17:15:16.209Z,100723.00
2018-11-27T17:17:43.905Z,100726.00
2018-11-27T17:22:42.254Z,100728.00
2018-11-27T17:25:09.911Z,100727.00
2018-11-27T17:27:37.762Z,100726.00
2018-11-27T17:30:17.668Z,100732.00
2018-11-27T17:32:45.708Z,100736.00
2018-11-27T17:35:13.374Z,100738.00
2018-11-27T17:37:41.023Z,100742.00
2018-11-27T17:42:37.667Z,100757.00
2018-11-27T17:45:12.074Z,100762.00
2018-11-27T17:47:39.788Z,100769.00
2018-11-27T17:50:14.773Z,100774.00
2018-11-27T17:52:42.474Z,100771.00
2018-11-27T17:55:10.271Z,100774.00
2018-11-27T18:00:22.870Z,100779.00
2018-11-27T18:05:19.437Z,100779.00
2018-11-27T18:07:47.107Z,100784.00
2018-11-27T18:12:42.178Z,100782.00
2018-11-27T18:15:14.023Z,100776.00
2018-11-27T18:17:41.987Z,100778.00
2018-11-27T18:20:35.654Z,100776.00
2018-11-27T18:25:57.061Z,100792.00
2018-11-27T18:30:54.714Z,100794.00
2018-11-27T18:33:22.536Z,100798.00
2018-11-27T18:38:17.343Z,100799.00
2018-11-27T18:40:45.176Z,100800.00
2018-11-27T18:43:13.318Z,100804.00
2018-11-27T18:45:40.996Z,100812.00
2018-11-27T18:48:08.703Z,100814.00
2018-11-27T18:53:04.075Z,100812.00
2018-11-27T18:55:31.771Z,100814.00
2018-11-27T18:57:59.398Z,100811.00
2018-11-27T19:00:28.106Z,100813.00
2018-11-27T19:02:56.197Z,100807.00
2018-11-27T19:05:23.909Z,100807.00
2018-11-27T19:07:51.584Z,100812.00
2018-11-27T19:10:21.550Z,100809.00
2018-11-27T19:12:49.264Z,100810.00
2018-11-27T19:15:25.059Z,100817.00
2018-11-27T19:17:55.062Z,100815.00
2018-11-27T19:20:22.646Z,100820.00
2018-11-27T19:25:17.442Z,100823.00
2018-11-27T19:30:16.218Z,100831.00
2018-11-27T19:32:42.277Z,100832.00
2018-11-27T19:35:11.216Z,100828.00
2018-11-27T19:37:38.956Z,100834.00
2018-11-27T19:40:09.299Z,100835.00
2018-11-27T19:45:22.386Z,100837.00
2018-11-27T19:47:50.353Z,100839.00
2018-11-27T19:50:17.983Z,100843.00
2018-11-27T19:52:46.783Z,100853.00
2018-11-27T19:55:15.585Z,100852.00
2018-11-27T19:57:43.130Z,100855.00
2018-11-27T20:00:18.234Z,100857.00
2018-11-27T20:02:45.823Z,100860.00
2018-11-27T20:05:15.236Z,100861.00
2018-11-27T20:12:39.723Z,100871.00
2018-11-27T20:17:41.400Z,100877.00
2018-11-27T20:20:10.989Z,100881.00
2018-11-27T20:22:39.052Z,100876.00
2018-11-27T20:25:11.638Z,100882.00
2018-11-27T20:27:39.678Z,100882.00
2018-11-27T20:30:20.145Z,100883.00
2018-11-27T20:35:16.971Z,100899.00
2018-11-27T20:37:46.751Z,100903.00
2018-11-27T20:40:16.121Z,100904.00
2018-11-27T20:42:43.727Z,100904.00
2018-11-27T20:47:45.825Z,100908.00
2018-11-27T20:52:43.844Z,100911.00
2018-11-27T20:55:11.388Z,100913.00
2018-11-27T21:00:17.753Z,100919.00
2018-11-27T21:05:13.944Z,100917.00
2018-11-27T21:07:41.529Z,100919.00
2018-11-27T21:12:38.528Z,100928.00
2018-11-27T21:15:09.252Z,100930.00
2018-11-27T21:20:05.833Z,100943.00
2018-11-27T21:22:33.359Z,100952.00
2018-11-27T21:25:01.327Z,100958.00
2018-11-27T21:27:29.004Z,100955.00
2018-11-27T21:29:56.641Z,100960.00
2018-11-27T21:34:51.620Z,100964.00
2018-11-27T21:37:19.219Z,100966.00
2018-11-27T21:42:14.962Z,100959.00
2018-11-27T21:44:42.972Z,100965.00
2018-11-27T21:47:10.808Z,100969.00
2018-11-27T21:49:38.366Z,100969.00
2018-11-27T21:52:06.463Z,100966.00
2018-11-27T21:54:34.187Z,100958.00
2018-11-27T21:57:01.854Z,100958.00
2018-11-27T21:59:29.966Z,100952.00
2018-11-27T22:01:57.538Z,100957.00
2018-11-27T22:04:25.123Z,100963.00
2018-11-27T22:06:53.048Z,100963.00
2018-11-27T22:09:20.492Z,100969.00
2018-11-27T22:11:48.955Z,100967.00
2018-11-27T22:16:43.839Z,100968.00
2018-11-27T22:19:11.414Z,100969.00
2018-11-27T22:24:06.699Z,100975.00
2018-11-27T22:26:34.292Z,100977.00
2018-11-27T22:29:02.186Z,100973.00
2018-11-27T22:31:29.760Z,100982.00
2018-11-27T22:33:57.459Z,100981.00
2018-11-27T22:41:19.521Z,100990.00
2018-11-27T22:43:47.094Z,100992.00
2018-11-27T22:46:15.759Z,100999.00
2018-11-27T22:48:43.394Z,101005.00
2018-11-27T22:51:11.541Z,101011.00
2018-11-27T22:56:06.341Z,101020.00
2018-11-27T22:58:33.859Z,101025.00
2018-11-27T23:03:28.876Z,101026.00
2018-11-27T23:05:56.481Z,101026.00
2018-11-27T23:08:24.416Z,101021.00
2018-11-27T23:10:51.820Z,101018.00
2018-11-27T23:13:19.366Z,101020.00
2018-11-27T23:18:14.029Z,101017.00
2018-11-27T23:20:41.659Z,101018.00
2018-11-27T23:23:09.293Z,101015.00
2018-11-27T23:25:36.841Z,101018.00
2018-11-27T23:28:04.610Z,101022.00
2018-11-27T23:32:59.521Z,101030.00
2018-11-27T23:35:27.112Z,101031.00
2018-11-27T23:37:55.124Z,101039.00
2018-11-27T23:40:22.678Z,101036.00
2018-11-27T23:42:50.293Z,101032.00
2018-11-27T23:45:19.872Z,101022.00
2018-11-27T23:47:47.443Z,101021.00
2018-11-27T23:50:16.467Z,101023.00
2018-11-27T23:52:44.347Z,101019.00
2018-11-27T23:55:13.258Z,101015.00
2018-11-27T23:57:41.218Z,101015.00
